createdAt,value
2022-10-10T00:01:48.804Z,18.60
2022-10-10T00:04:15.520Z,18.70
2022-10-10T00:06:42.307Z,18.70
2022-10-10T00:09:09.053Z,18.60
2022-10-10T00:11:35.888Z,18.70
2022-10-10T00:14:02.641Z,18.60
2022-10-10T00:16:29.420Z,18.70
2022-10-10T00:18:56.316Z,18.70
2022-10-10T00:21:23.069Z,18.60
2022-10-10T00:23:49.769Z,18.60
2022-10-10T00:26:19.227Z,18.60
2022-10-10T00:28:46.376Z,18.60
2022-10-10T00:31:13.449Z,18.60
2022-10-10T00:33:40.245Z,18.60
2022-10-10T00:36:07.184Z,18.50
2022-10-10T00:38:34.243Z,18.40
2022-10-10T00:41:01.069Z,18.50
2022-10-10T00:43:28.716Z,18.50
2022-10-10T00:45:55.533Z,18.40
2022-10-10T00:48:28.001Z,18.40
2022-10-10T00:50:54.655Z,18.50
2022-10-10T00:53:23.457Z,18.40
2022-10-10T00:55:50.913Z,18.50
2022-10-10T00:58:18.473Z,18.50
2022-10-10T01:00:45.302Z,18.50
2022-10-10T01:03:12.117Z,18.50
2022-10-10T01:05:39.584Z,18.50
2022-10-10T01:08:06.587Z,18.40
2022-10-10T01:10:35.956Z,18.50
2022-10-10T01:13:05.477Z,18.50
2022-10-10T01:15:51.378Z,18.40
2022-10-10T01:18:23.227Z,18.40
2022-10-10T01:20:58.947Z,18.50
2022-10-10T01:23:35.961Z,18.60
2022-10-10T01:26:17.667Z,18.50
2022-10-10T01:28:48.989Z,18.50
2022-10-10T01:31:22.416Z,18.50
2022-10-10T01:34:09.462Z,18.60
2022-10-10T01:36:58.889Z,18.60
2022-10-10T01:39:28.391Z,18.70
2022-10-10T01:42:13.774Z,18.70
2022-10-10T01:44:43.791Z,18.70
2022-10-10T01:47:11.311Z,18.70
2022-10-10T01:49:38.346Z,18.70
2022-10-10T01:52:15.041Z,18.60
2022-10-10T01:54:48.236Z,18.60
2022-10-10T01:57:30.494Z,18.60
2022-10-10T02:00:08.014Z,18.50
2022-10-10T02:02:40.850Z,18.50
2022-10-10T02:05:10.408Z,18.50
2022-10-10T02:07:43.749Z,18.50
2022-10-10T02:10:12.223Z,18.50
2022-10-10T02:12:39.519Z,18.50
2022-10-10T02:15:08.443Z,18.50
2022-10-10T02:17:35.883Z,18.50
2022-10-10T02:20:02.782Z,18.50
2022-10-10T02:22:29.971Z,18.50
2022-10-10T02:24:56.872Z,18.50
2022-10-10T02:27:36.746Z,18.50
2022-10-10T02:30:04.400Z,18.50
2022-10-10T02:32:33.857Z,18.40
2022-10-10T02:35:03.259Z,18.40
2022-10-10T02:37:30.702Z,18.40
2022-10-10T02:40:00.033Z,18.40
2022-10-10T02:42:27.852Z,18.40
2022-10-10T02:44:55.480Z,18.40
2022-10-10T02:47:22.459Z,18.40
2022-10-10T02:49:49.341Z,18.40
2022-10-10T02:52:16.730Z,18.50
2022-10-10T02:54:43.672Z,18.40
2022-10-10T02:57:10.661Z,18.40
2022-10-10T02:59:37.461Z,18.40
2022-10-10T03:02:04.305Z,18.40
2022-10-10T03:04:31.061Z,18.50
2022-10-10T03:06:57.832Z,18.50
2022-10-10T03:09:24.568Z,18.50
2022-10-10T03:11:51.312Z,18.50
2022-10-10T03:14:18.160Z,18.60
2022-10-10T03:16:44.890Z,18.50
2022-10-10T03:19:11.808Z,18.50
2022-10-10T03:21:38.538Z,18.50
2022-10-10T03:24:05.835Z,18.50
2022-10-10T03:26:32.932Z,18.50
2022-10-10T03:29:01.076Z,18.40
2022-10-10T03:31:27.815Z,18.40
2022-10-10T03:33:54.519Z,18.40
2022-10-10T03:36:21.330Z,18.40
2022-10-10T03:38:48.028Z,18.50
2022-10-10T03:41:14.954Z,18.50
2022-10-10T03:43:41.750Z,18.50
2022-10-10T03:46:11.447Z,18.60
2022-10-10T03:48:42.001Z,18.60
2022-10-10T03:51:08.840Z,18.60
2022-10-10T03:53:35.717Z,18.60
2022-10-10T03:56:02.550Z,18.60
2022-10-10T03:58:29.315Z,18.60
2022-10-10T04:00:56.549Z,18.70
2022-10-10T04:03:23.618Z,18.80
2022-10-10T04:05:50.520Z,18.80
2022-10-10T04:08:17.361Z,18.60
2022-10-10T04:10:44.412Z,18.60
2022-10-10T04:13:11.163Z,18.60
2022-10-10T04:15:38.003Z,18.60
2022-10-10T04:18:04.792Z,18.60
2022-10-10T04:20:31.867Z,18.50
2022-10-10T04:22:58.594Z,18.60
2022-10-10T04:25:25.419Z,18.50
2022-10-10T04:27:52.144Z,18.60
2022-10-10T04:30:19.375Z,18.60
2022-10-10T04:32:46.135Z,18.60
2022-10-10T04:35:12.828Z,18.50
2022-10-10T04:37:39.753Z,18.60
2022-10-10T04:40:06.733Z,18.50
2022-10-10T04:42:33.547Z,18.60
2022-10-10T04:45:00.252Z,18.50
2022-10-10T04:47:26.976Z,18.60
2022-10-10T04:49:53.740Z,18.60
2022-10-10T04:52:20.487Z,18.60
2022-10-10T04:54:47.201Z,18.50
2022-10-10T04:57:13.992Z,18.60
2022-10-10T04:59:40.713Z,18.50
2022-10-10T05:02:07.537Z,18.40
2022-10-10T05:04:34.259Z,18.50
2022-10-10T05:07:01.013Z,18.40
2022-10-10T05:09:27.785Z,18.30
2022-10-10T05:11:54.495Z,18.10
2022-10-10T05:14:21.236Z,18.10
2022-10-10T05:16:47.952Z,18.10
2022-10-10T05:19:14.833Z,18.00
2022-10-10T05:21:41.575Z,18.00
2022-10-10T05:24:08.359Z,18.10
2022-10-10T05:26:36.764Z,18.00
2022-10-10T05:29:06.563Z,18.10
2022-10-10T05:31:34.881Z,18.20
2022-10-10T05:34:01.714Z,18.30
2022-10-10T05:36:28.490Z,18.40
2022-10-10T05:38:55.227Z,18.40
2022-10-10T05:41:21.912Z,18.30
2022-10-10T05:43:48.653Z,18.30
2022-10-10T05:46:15.418Z,18.20
2022-10-10T05:48:42.181Z,18.20
2022-10-10T05:51:08.963Z,18.20
2022-10-10T05:53:35.921Z,18.20
2022-10-10T05:56:02.761Z,18.30
2022-10-10T05:58:29.753Z,18.20
2022-10-10T06:01:01.808Z,18.20
2022-10-10T06:03:28.605Z,18.20
2022-10-10T06:05:55.365Z,18.20
2022-10-10T06:08:22.061Z,18.20
2022-10-10T06:10:48.991Z,18.20
2022-10-10T06:13:20.322Z,18.10
2022-10-10T06:15:52.969Z,18.20
2022-10-10T06:18:19.734Z,18.10
2022-10-10T06:20:46.592Z,17.90
2022-10-10T06:23:13.372Z,17.80
2022-10-10T06:25:41.602Z,17.80
2022-10-10T06:28:09.103Z,17.80
2022-10-10T06:30:39.683Z,17.90
2022-10-10T06:33:07.553Z,17.80
2022-10-10T06:35:37.933Z,17.80
2022-10-10T06:38:04.700Z,17.70
2022-10-10T06:40:32.243Z,17.80
2022-10-10T06:42:59.054Z,17.80
2022-10-10T06:45:25.830Z,17.70
2022-10-10T06:47:52.611Z,17.70
2022-10-10T06:50:19.364Z,17.80
2022-10-10T06:52:46.065Z,17.70
2022-10-10T06:55:12.820Z,17.70
2022-10-10T06:57:39.523Z,17.70
2022-10-10T07:00:06.585Z,17.70
2022-10-10T07:02:33.461Z,17.70
2022-10-10T07:05:00.285Z,17.80
2022-10-10T07:07:27.000Z,17.90
2022-10-10T07:09:53.872Z,17.90
2022-10-10T07:12:20.633Z,18.00
2022-10-10T07:14:47.418Z,18.00
2022-10-10T07:17:14.395Z,18.00
2022-10-10T07:19:41.103Z,18.10
2022-10-10T07:22:07.876Z,18.10
2022-10-10T07:24:34.661Z,18.10
2022-10-10T07:27:07.847Z,18.10
2022-10-10T07:29:35.518Z,18.10
2022-10-10T07:32:02.244Z,18.20
2022-10-10T07:34:28.977Z,18.20
2022-10-10T07:36:55.678Z,18.40
2022-10-10T07:39:26.143Z,18.40
2022-10-10T07:41:53.053Z,18.50
2022-10-10T07:44:20.123Z,18.60
2022-10-10T07:46:47.223Z,18.90
2022-10-10T07:49:14.098Z,19.00
2022-10-10T07:51:40.894Z,18.90
2022-10-10T07:54:07.737Z,19.10
2022-10-10T07:56:34.526Z,18.90
2022-10-10T07:59:01.377Z,18.80
2022-10-10T08:01:28.196Z,18.80
2022-10-10T08:03:57.873Z,18.90
2022-10-10T08:06:24.691Z,18.90
2022-10-10T08:08:52.336Z,19.00
2022-10-10T08:11:20.798Z,19.10
2022-10-10T08:13:47.575Z,19.20
2022-10-10T08:16:14.318Z,19.30
2022-10-10T08:18:41.086Z,19.50
2022-10-10T08:21:09.059Z,19.70
2022-10-10T08:23:36.183Z,19.70
2022-10-10T08:26:04.108Z,20.00
2022-10-10T08:28:31.256Z,19.80
2022-10-10T08:30:58.903Z,19.80
2022-10-10T08:33:27.900Z,20.00
2022-10-10T08:35:54.744Z,20.20
2022-10-10T08:38:21.542Z,20.40
2022-10-10T08:40:49.475Z,20.40
2022-10-10T08:43:25.450Z,20.40
2022-10-10T08:45:53.072Z,20.30
2022-10-10T08:48:22.945Z,20.30
2022-10-10T08:50:53.523Z,20.40
2022-10-10T08:53:35.008Z,20.60
2022-10-10T08:56:02.468Z,20.60
2022-10-10T08:58:30.045Z,20.50
2022-10-10T09:00:56.757Z,20.70
2022-10-10T09:03:42.477Z,20.80
2022-10-10T09:06:21.195Z,20.70
2022-10-10T09:09:08.242Z,21.00
2022-10-10T09:11:37.809Z,21.10
2022-10-10T09:14:07.251Z,20.90
2022-10-10T09:16:33.984Z,20.90
2022-10-10T09:19:06.565Z,20.80
2022-10-10T09:21:34.700Z,20.80
2022-10-10T09:24:01.440Z,20.90
2022-10-10T09:26:33.517Z,20.90
2022-10-10T09:29:15.268Z,20.80
2022-10-10T09:31:44.314Z,20.70
2022-10-10T09:34:16.781Z,20.80
2022-10-10T09:36:44.510Z,20.80
2022-10-10T09:39:17.204Z,20.80
2022-10-10T09:41:47.929Z,20.90
2022-10-10T09:44:14.977Z,21.00
2022-10-10T09:46:42.050Z,21.20
2022-10-10T09:49:13.282Z,21.10
2022-10-10T09:51:40.015Z,21.00
2022-10-10T09:54:07.335Z,21.10
2022-10-10T09:56:43.371Z,21.00
2022-10-10T09:59:30.327Z,21.10
2022-10-10T10:02:03.958Z,21.30
2022-10-10T10:04:33.780Z,21.40
2022-10-10T10:07:04.705Z,21.40
2022-10-10T10:09:31.496Z,21.40
2022-10-10T10:11:58.440Z,21.40
2022-10-10T10:14:26.720Z,21.60
2022-10-10T10:16:55.249Z,21.70
2022-10-10T10:19:32.714Z,21.70
2022-10-10T10:21:59.600Z,21.80
2022-10-10T10:24:32.443Z,21.90
2022-10-10T10:27:09.045Z,22.20
2022-10-10T10:29:36.456Z,22.30
2022-10-10T10:32:15.292Z,22.40
2022-10-10T10:34:42.035Z,22.50
2022-10-10T10:37:15.075Z,22.60
2022-10-10T10:40:00.783Z,22.60
2022-10-10T10:42:27.613Z,22.90
2022-10-10T10:45:14.983Z,23.00
2022-10-10T10:48:00.364Z,23.20
2022-10-10T10:50:27.153Z,23.40
2022-10-10T10:52:53.917Z,23.40
2022-10-10T10:55:20.606Z,23.30
2022-10-10T10:58:05.180Z,23.20
2022-10-10T11:01:22.551Z,23.40
2022-10-10T11:05:16.158Z,23.50
2022-10-10T11:06:20.822Z,23.70
2022-10-10T11:08:57.975Z,23.80
2022-10-10T11:11:27.620Z,24.00
2022-10-10T11:14:00.169Z,23.80
2022-10-10T11:16:48.047Z,23.70
2022-10-10T11:19:19.101Z,24.00
2022-10-10T11:21:49.360Z,24.10
2022-10-10T11:24:34.650Z,24.20
2022-10-10T11:27:04.420Z,24.00
2022-10-10T11:29:38.454Z,24.60
2022-10-10T11:32:12.559Z,25.10
2022-10-10T11:34:44.959Z,25.00
2022-10-10T11:37:16.967Z,24.70
2022-10-10T11:39:52.460Z,23.90
2022-10-10T11:42:24.926Z,23.50
2022-10-10T11:44:56.195Z,23.60
2022-10-10T11:47:22.945Z,23.90
2022-10-10T11:49:55.676Z,24.40
2022-10-10T11:52:34.114Z,24.80
2022-10-10T11:55:15.849Z,24.60
2022-10-10T11:58:17.744Z,24.00
2022-10-10T12:00:48.535Z,23.60
2022-10-10T12:03:15.333Z,23.80
2022-10-10T12:05:47.675Z,24.00
2022-10-10T12:08:18.148Z,24.00
2022-10-10T12:10:50.238Z,24.10
2022-10-10T12:13:28.442Z,24.00
2022-10-10T12:15:57.206Z,24.30
2022-10-10T12:18:25.696Z,24.50
2022-10-10T12:21:03.487Z,24.50
2022-10-10T12:23:30.979Z,24.60
2022-10-10T12:25:57.753Z,24.40
2022-10-10T12:28:44.935Z,24.40
2022-10-10T12:31:11.809Z,24.30
2022-10-10T12:33:39.499Z,24.40
2022-10-10T12:36:18.362Z,24.50
2022-10-10T12:39:05.941Z,24.70
2022-10-10T12:41:58.804Z,25.10
2022-10-10T12:44:34.665Z,24.90
2022-10-10T12:47:16.384Z,24.60
2022-10-10T12:49:53.538Z,24.50
2022-10-10T12:52:21.927Z,24.70
2022-10-10T12:54:49.250Z,24.40
2022-10-10T12:57:28.264Z,24.10
2022-10-10T12:59:57.656Z,24.20
2022-10-10T13:02:28.224Z,24.20
2022-10-10T13:04:56.616Z,24.30
2022-10-10T13:07:24.557Z,24.50
2022-10-10T13:09:52.595Z,24.60
2022-10-10T13:12:29.853Z,24.50
2022-10-10T13:14:57.004Z,24.70
2022-10-10T13:17:32.229Z,24.80
2022-10-10T13:20:00.182Z,25.00
2022-10-10T13:22:30.744Z,25.10
2022-10-10T13:24:58.213Z,25.50
2022-10-10T13:27:31.143Z,25.60
2022-10-10T13:29:58.199Z,25.50
2022-10-10T13:32:29.203Z,25.10
2022-10-10T13:35:01.006Z,25.20
2022-10-10T13:37:28.646Z,25.10
2022-10-10T13:39:55.638Z,24.70
2022-10-10T13:42:33.473Z,24.60
2022-10-10T13:45:01.440Z,24.50
2022-10-10T13:47:46.551Z,24.50
2022-10-10T13:50:33.465Z,24.50
2022-10-10T13:53:19.065Z,24.40
2022-10-10T13:55:45.925Z,23.80
2022-10-10T13:58:14.380Z,23.90
2022-10-10T14:00:41.233Z,23.80
2022-10-10T14:03:19.207Z,23.90
2022-10-10T14:05:46.672Z,23.80
2022-10-10T14:08:15.758Z,23.90
2022-10-10T14:10:42.724Z,23.90
2022-10-10T14:13:17.213Z,23.70
2022-10-10T14:15:45.727Z,23.70
2022-10-10T14:18:18.606Z,23.60
2022-10-10T14:20:46.091Z,23.60
2022-10-10T14:23:12.951Z,23.40
2022-10-10T14:25:43.988Z,23.40
2022-10-10T14:28:14.729Z,23.30
2022-10-10T14:30:41.544Z,23.20
2022-10-10T14:33:12.571Z,23.00
2022-10-10T14:35:39.676Z,23.00
2022-10-10T14:38:06.429Z,23.00
2022-10-10T14:40:33.849Z,23.00
2022-10-10T14:43:00.826Z,23.00
2022-10-10T14:45:27.982Z,23.10
2022-10-10T14:47:54.672Z,23.00
2022-10-10T14:50:23.820Z,23.10
2022-10-10T14:52:51.580Z,23.10
2022-10-10T14:55:18.346Z,23.00
2022-10-10T14:57:45.163Z,22.90
2022-10-10T15:00:14.587Z,22.80
2022-10-10T15:02:45.425Z,22.70
2022-10-10T15:05:13.296Z,22.70
2022-10-10T15:07:40.337Z,22.70
2022-10-10T15:12:54.504Z,22.70
2022-10-10T15:15:21.233Z,22.70
2022-10-10T15:17:48.326Z,22.60
2022-10-10T15:20:15.075Z,22.60
2022-10-10T15:22:42.320Z,22.60
2022-10-10T15:25:09.647Z,22.70
2022-10-10T15:27:37.024Z,22.70
2022-10-10T15:30:04.788Z,22.70
2022-10-10T15:32:31.574Z,22.60
2022-10-10T15:34:58.572Z,22.50
2022-10-10T15:37:26.242Z,22.50
2022-10-10T15:39:53.036Z,22.50
2022-10-10T15:42:22.915Z,22.50
2022-10-10T15:44:50.794Z,22.50
2022-10-10T15:47:17.941Z,22.50
2022-10-10T15:49:44.984Z,22.30
2022-10-10T15:52:11.767Z,22.20
2022-10-10T15:54:38.545Z,22.20
2022-10-10T15:57:05.407Z,22.10
2022-10-10T15:59:32.184Z,22.00
2022-10-10T16:01:58.980Z,21.90
2022-10-10T16:04:25.830Z,21.80
2022-10-10T16:07:20.046Z,21.60
2022-10-10T16:09:40.322Z,21.50
2022-10-10T16:12:07.324Z,21.50
2022-10-10T16:14:34.285Z,21.40
2022-10-10T16:17:01.196Z,21.30
2022-10-10T16:19:27.982Z,21.20
2022-10-10T16:21:55.832Z,21.20
2022-10-10T16:24:22.665Z,21.10
2022-10-10T16:26:49.441Z,21.00
2022-10-10T16:29:18.539Z,20.90
2022-10-10T16:31:45.354Z,20.80
2022-10-10T16:34:15.066Z,20.70
2022-10-10T16:36:42.166Z,20.60
2022-10-10T16:39:08.938Z,20.50
2022-10-10T16:41:47.463Z,20.30
2022-10-10T16:44:15.619Z,20.00
2022-10-10T16:46:42.402Z,19.80
2022-10-10T16:49:09.717Z,19.70
2022-10-10T16:51:36.988Z,19.50
2022-10-10T16:54:05.371Z,19.40
2022-10-10T16:56:32.908Z,19.40
2022-10-10T16:59:00.174Z,19.30
2022-10-10T17:01:27.403Z,19.30
2022-10-10T17:03:54.428Z,19.10
2022-10-10T17:06:22.352Z,19.10
2022-10-10T17:08:50.233Z,19.10
2022-10-10T17:11:18.658Z,19.00
2022-10-10T17:13:45.439Z,18.90
2022-10-10T17:19:00.994Z,18.60
2022-10-10T17:21:27.823Z,18.60
2022-10-10T17:23:54.593Z,18.70
2022-10-10T17:26:22.623Z,18.60
2022-10-10T17:28:49.946Z,18.70
2022-10-10T17:31:17.402Z,18.40
2022-10-10T17:33:49.708Z,18.40
2022-10-10T17:36:20.741Z,18.30
2022-10-10T17:38:48.164Z,18.30
2022-10-10T17:41:16.380Z,18.30
2022-10-10T17:43:43.543Z,18.30
2022-10-10T17:46:33.828Z,18.20
2022-10-10T17:49:02.308Z,18.20
2022-10-10T17:51:29.121Z,18.20
2022-10-10T17:53:58.519Z,18.20
2022-10-10T17:56:25.341Z,18.20
2022-10-10T17:58:52.049Z,18.10
2022-10-10T18:01:19.774Z,18.00
2022-10-10T18:03:47.026Z,17.90
2022-10-10T18:06:15.649Z,17.90
2022-10-10T18:08:42.437Z,17.80
2022-10-10T18:11:14.111Z,17.80
2022-10-10T18:13:40.987Z,18.00
2022-10-10T18:16:09.306Z,17.90
2022-10-10T18:18:36.919Z,17.80
2022-10-10T18:21:04.955Z,17.70
2022-10-10T18:23:32.190Z,17.70
2022-10-10T18:26:02.250Z,17.70
2022-10-10T18:28:36.286Z,17.70
2022-10-10T18:31:09.536Z,17.70
2022-10-10T18:33:39.924Z,17.60
2022-10-10T18:36:09.889Z,17.60
2022-10-10T18:38:37.689Z,17.60
2022-10-10T18:41:15.162Z,17.40
2022-10-10T18:43:43.384Z,17.40
2022-10-10T18:46:11.277Z,17.50
2022-10-10T18:48:38.654Z,17.50
2022-10-10T18:51:06.558Z,17.40
2022-10-10T18:53:37.416Z,17.30
2022-10-10T18:56:04.798Z,17.30
2022-10-10T18:58:32.369Z,17.30
2022-10-10T19:01:00.334Z,17.30
2022-10-10T19:03:27.977Z,17.20
2022-10-10T19:05:54.846Z,17.20
2022-10-10T19:08:21.842Z,17.30
2022-10-10T19:10:49.292Z,17.20
2022-10-10T19:13:16.645Z,17.20
2022-10-10T19:15:43.462Z,17.20
2022-10-10T19:18:10.587Z,17.10
2022-10-10T19:20:39.158Z,17.00
2022-10-10T19:23:06.237Z,17.00
2022-10-10T19:25:37.064Z,17.00
2022-10-10T19:28:03.806Z,17.00
2022-10-10T19:30:30.560Z,17.00
2022-10-10T19:32:58.013Z,17.00
2022-10-10T19:35:25.318Z,17.00
2022-10-10T19:37:52.099Z,16.90
2022-10-10T19:40:18.984Z,16.90
2022-10-10T19:42:45.748Z,16.90
2022-10-10T19:45:12.438Z,16.90
2022-10-10T19:47:39.247Z,16.80
2022-10-10T19:50:06.262Z,16.70
2022-10-10T19:52:32.979Z,16.70
2022-10-10T19:54:59.776Z,16.60
2022-10-10T19:57:26.527Z,16.60
2022-10-10T19:59:53.958Z,16.60
2022-10-10T20:02:20.824Z,16.70
2022-10-10T20:04:47.520Z,16.70
2022-10-10T20:07:14.527Z,16.70
2022-10-10T20:09:41.704Z,16.60
2022-10-10T20:12:08.476Z,16.60
2022-10-10T20:14:35.287Z,16.60
2022-10-10T20:17:02.052Z,16.70
2022-10-10T20:19:28.844Z,16.60
2022-10-10T20:21:55.633Z,16.40
2022-10-10T20:24:22.339Z,16.40
2022-10-10T20:26:49.124Z,16.40
2022-10-10T20:29:15.897Z,16.40
2022-10-10T20:31:42.677Z,16.30
2022-10-10T20:34:09.760Z,16.30
2022-10-10T20:36:37.139Z,16.40
2022-10-10T20:39:05.392Z,16.20
2022-10-10T20:41:33.078Z,16.20
2022-10-10T20:44:01.027Z,16.10
2022-10-10T20:46:29.106Z,16.10
2022-10-10T20:48:59.714Z,16.10
2022-10-10T20:51:27.230Z,16.00
2022-10-10T20:53:58.019Z,16.10
2022-10-10T20:56:25.455Z,16.20
2022-10-10T20:58:52.342Z,16.10
2022-10-10T21:01:20.802Z,16.00
2022-10-10T21:03:47.931Z,16.10
2022-10-10T21:06:16.182Z,16.10
2022-10-10T21:08:43.136Z,16.10
2022-10-10T21:11:11.135Z,16.00
2022-10-10T21:13:39.016Z,15.90
2022-10-10T21:16:07.036Z,15.90
2022-10-10T21:18:34.211Z,15.90
2022-10-10T21:21:01.697Z,16.00
2022-10-10T21:23:30.018Z,16.00
2022-10-10T21:25:56.839Z,16.00
2022-10-10T21:28:23.619Z,15.90
2022-10-10T21:30:51.385Z,15.80
2022-10-10T21:33:21.686Z,15.80
2022-10-10T21:35:51.834Z,15.90
2022-10-10T21:38:18.773Z,15.80
2022-10-10T21:40:45.681Z,15.70
2022-10-10T21:43:12.768Z,15.80
2022-10-10T21:45:40.044Z,15.70
2022-10-10T21:48:08.495Z,15.80
2022-10-10T21:50:35.295Z,15.80
2022-10-10T21:53:02.809Z,15.90
2022-10-10T21:55:29.609Z,15.70
2022-10-10T21:57:56.449Z,15.80
2022-10-10T22:00:23.297Z,15.80
2022-10-10T22:02:50.082Z,15.80
2022-10-10T22:05:17.196Z,15.80
2022-10-10T22:07:45.048Z,15.90
2022-10-10T22:10:14.671Z,15.80
2022-10-10T22:12:42.295Z,15.70
2022-10-10T22:15:09.858Z,15.80
2022-10-10T22:17:36.992Z,15.80
2022-10-10T22:20:05.016Z,15.80
2022-10-10T22:22:31.935Z,15.70
2022-10-10T22:24:58.755Z,15.70
2022-10-10T22:27:25.636Z,15.70
2022-10-10T22:29:52.489Z,15.70
2022-10-10T22:32:19.216Z,15.60
2022-10-10T22:34:48.889Z,15.70
2022-10-10T22:37:15.640Z,15.80
2022-10-10T22:39:42.943Z,15.60
2022-10-10T22:42:09.710Z,15.60
2022-10-10T22:44:36.446Z,15.60
2022-10-10T22:47:03.354Z,15.50
2022-10-10T22:49:30.044Z,15.50
2022-10-10T22:51:56.804Z,15.60
2022-10-10T22:54:23.536Z,15.60
2022-10-10T22:56:50.291Z,15.60
2022-10-10T22:59:17.034Z,15.60
2022-10-10T23:01:43.795Z,15.60
2022-10-10T23:04:13.457Z,15.40
2022-10-10T23:06:40.434Z,15.40
2022-10-10T23:09:07.246Z,15.40
2022-10-10T23:11:34.037Z,15.40
2022-10-10T23:14:00.738Z,15.40
2022-10-10T23:16:27.472Z,15.40
2022-10-10T23:18:54.259Z,15.50
2022-10-10T23:21:21.104Z,15.50
2022-10-10T23:23:47.878Z,15.40
2022-10-10T23:26:14.685Z,15.40
2022-10-10T23:28:44.727Z,15.30
2022-10-10T23:31:11.824Z,15.50
2022-10-10T23:33:39.760Z,15.30
2022-10-10T23:36:10.045Z,15.30
2022-10-10T23:38:37.301Z,15.30
2022-10-10T23:41:04.445Z,15.40
2022-10-10T23:43:31.153Z,15.30
2022-10-10T23:45:57.862Z,15.20
2022-10-10T23:48:24.606Z,15.20
2022-10-10T23:50:51.449Z,15.20
2022-10-10T23:53:18.393Z,15.30
2022-10-10T23:55:46.092Z,15.20
2022-10-10T23:58:12.969Z,15.20
